sensor_id;sensor_type;location;lat;lon;timestamp;P1;durP1;ratioP1;P2;durP2;ratioP2
58685;SDS011;44465;53.206;-6.106;2023-05-15T00:00:55;1.73;;;1.05;;
58685;SDS011;44465;53.206;-6.106;2023-05-15T00:03:20;2.30;;;1.20;;
58685;SDS011;44465;53.206;-6.106;2023-05-15T00:05:46;1.70;;;0.95;;
58685;SDS011;44465;53.206;-6.106;2023-05-15T00:08:12;2.90;;;0.95;;
58685;SDS011;44465;53.206;-6.106;2023-05-15T00:10:37;3.03;;;0.93;;
58685;SDS011;44465;53.206;-6.106;2023-05-15T00:13:03;1.08;;;0.82;;
58685;SDS011;44465;53.206;-6.106;2023-05-15T00:15:28;3.63;;;1.20;;
58685;SDS011;44465;53.206;-6.106;2023-05-15T00:17:53;2.53;;;0.90;;
58685;SDS011;44465;53.206;-6.106;2023-05-15T00:20:19;0.82;;;0.70;;
58685;SDS011;44465;53.206;-6.106;2023-05-15T00:22:45;1.02;;;0.90;;
58685;SDS011;44465;53.206;-6.106;2023-05-15T00:25:10;1.58;;;0.80;;
58685;SDS011;44465;53.206;-6.106;2023-05-15T00:27:36;1.33;;;0.80;;
58685;SDS011;44465;53.206;-6.106;2023-05-15T00:30:02;1.50;;;0.85;;
58685;SDS011;44465;53.206;-6.106;2023-05-15T00:32:27;3.22;;;0.93;;
58685;SDS011;44465;53.206;-6.106;2023-05-15T00:34:53;3.17;;;1.00;;
58685;SDS011;44465;53.206;-6.106;2023-05-15T00:37:18;1.45;;;0.90;;
58685;SDS011;44465;53.206;-6.106;2023-05-15T00:39:44;1.85;;;0.90;;
58685;SDS011;44465;53.206;-6.106;2023-05-15T00:42:10;2.70;;;0.90;;
58685;SDS011;44465;53.206;-6.106;2023-05-15T00:44:35;2.97;;;0.88;;
58685;SDS011;44465;53.206;-6.106;2023-05-15T00:47:03;1.45;;;0.75;;
58685;SDS011;44465;53.206;-6.106;2023-05-15T00:49:30;1.05;;;0.73;;
58685;SDS011;44465;53.206;-6.106;2023-05-15T00:51:59;1.27;;;0.73;;
58685;SDS011;44465;53.206;-6.106;2023-05-15T00:54:27;0.80;;;0.80;;
58685;SDS011;44465;53.206;-6.106;2023-05-15T00:56:55;0.60;;;0.60;;
58685;SDS011;44465;53.206;-6.106;2023-05-15T00:59:24;2.00;;;0.75;;
58685;SDS011;44465;53.206;-6.106;2023-05-15T01:01:52;2.03;;;0.98;;
58685;SDS011;44465;53.206;-6.106;2023-05-15T01:04:18;1.65;;;0.68;;
58685;SDS011;44465;53.206;-6.106;2023-05-15T01:06:44;1.98;;;0.90;;
58685;SDS011;44465;53.206;-6.106;2023-05-15T01:09:09;0.95;;;0.80;;
58685;SDS011;44465;53.206;-6.106;2023-05-15T01:11:36;0.93;;;0.90;;
58685;SDS011;44465;53.206;-6.106;2023-05-15T01:14:04;2.55;;;1.00;;
58685;SDS011;44465;53.206;-6.106;2023-05-15T01:16:34;1.65;;;0.90;;
58685;SDS011;44465;53.206;-6.106;2023-05-15T01:19:01;1.92;;;1.20;;
58685;SDS011;44465;53.206;-6.106;2023-05-15T01:24:05;1.05;;;0.90;;
58685;SDS011;44465;53.206;-6.106;2023-05-15T01:26:48;1.65;;;1.05;;
58685;SDS011;44465;53.206;-6.106;2023-05-15T01:29:29;2.13;;;0.90;;
58685;SDS011;44465;53.206;-6.106;2023-05-15T01:32:17;2.47;;;0.98;;
58685;SDS011;44465;53.206;-6.106;2023-05-15T01:37:25;1.70;;;1.00;;
58685;SDS011;44465;53.206;-6.106;2023-05-15T01:39:54;1.30;;;0.80;;
58685;SDS011;44465;53.206;-6.106;2023-05-15T01:42:26;1.15;;;0.90;;
58685;SDS011;44465;53.206;-6.106;2023-05-15T01:45:03;1.42;;;0.70;;
58685;SDS011;44465;53.206;-6.106;2023-05-15T01:47:36;0.93;;;0.82;;
58685;SDS011;44465;53.206;-6.106;2023-05-15T01:50:06;0.70;;;0.70;;
58685;SDS011;44465;53.206;-6.106;2023-05-15T01:52:35;1.15;;;0.88;;
58685;SDS011;44465;53.206;-6.106;2023-05-15T01:55:04;1.80;;;0.88;;
58685;SDS011;44465;53.206;-6.106;2023-05-15T01:57:32;1.42;;;1.08;;
58685;SDS011;44465;53.206;-6.106;2023-05-15T01:59:59;1.13;;;0.95;;
58685;SDS011;44465;53.206;-6.106;2023-05-15T02:02:28;1.67;;;0.75;;
58685;SDS011;44465;53.206;-6.106;2023-05-15T02:04:55;4.15;;;1.00;;
58685;SDS011;44465;53.206;-6.106;2023-05-15T02:07:21;2.60;;;0.80;;
58685;SDS011;44465;53.206;-6.106;2023-05-15T02:09:48;0.93;;;0.73;;
58685;SDS011;44465;53.206;-6.106;2023-05-15T02:12:15;1.52;;;0.80;;
58685;SDS011;44465;53.206;-6.106;2023-05-15T02:14:42;2.00;;;0.82;;
58685;SDS011;44465;53.206;-6.106;2023-05-15T02:17:10;1.77;;;0.73;;
58685;SDS011;44465;53.206;-6.106;2023-05-15T02:19:36;0.95;;;0.80;;
58685;SDS011;44465;53.206;-6.106;2023-05-15T02:22:01;2.67;;;0.80;;
58685;SDS011;44465;53.206;-6.106;2023-05-15T02:24:26;0.88;;;0.70;;
58685;SDS011;44465;53.206;-6.106;2023-05-15T02:29:41;0.73;;;0.70;;
58685;SDS011;44465;53.206;-6.106;2023-05-15T02:32:30;0.85;;;0.85;;
58685;SDS011;44465;53.206;-6.106;2023-05-15T02:37:45;0.73;;;0.73;;
58685;SDS011;44465;53.206;-6.106;2023-05-15T02:40:15;2.28;;;0.65;;
58685;SDS011;44465;53.206;-6.106;2023-05-15T02:42:41;1.33;;;0.73;;
58685;SDS011;44465;53.206;-6.106;2023-05-15T02:45:11;1.77;;;0.50;;
58685;SDS011;44465;53.206;-6.106;2023-05-15T02:47:37;1.35;;;1.00;;
58685;SDS011;44465;53.206;-6.106;2023-05-15T02:50:04;0.67;;;0.60;;
58685;SDS011;44465;53.206;-6.106;2023-05-15T02:52:34;1.17;;;1.00;;
58685;SDS011;44465;53.206;-6.106;2023-05-15T02:54:59;0.95;;;0.93;;
58685;SDS011;44465;53.206;-6.106;2023-05-15T02:57:25;2.38;;;0.80;;
58685;SDS011;44465;53.206;-6.106;2023-05-15T02:59:54;1.17;;;0.90;;
58685;SDS011;44465;53.206;-6.106;2023-05-15T03:02:23;1.08;;;0.80;;
58685;SDS011;44465;53.206;-6.106;2023-05-15T03:04:49;1.50;;;1.10;;
58685;SDS011;44465;53.206;-6.106;2023-05-15T03:07:15;1.50;;;0.80;;
58685;SDS011;44465;53.206;-6.106;2023-05-15T03:09:41;1.25;;;0.60;;
58685;SDS011;44465;53.206;-6.106;2023-05-15T03:12:06;1.60;;;1.00;;
58685;SDS011;44465;53.206;-6.106;2023-05-15T03:14:32;0.95;;;0.60;;
58685;SDS011;44465;53.206;-6.106;2023-05-15T03:16:58;0.98;;;0.55;;
58685;SDS011;44465;53.206;-6.106;2023-05-15T03:19:24;1.63;;;0.95;;
58685;SDS011;44465;53.206;-6.106;2023-05-15T03:21:50;1.52;;;0.63;;
58685;SDS011;44465;53.206;-6.106;2023-05-15T03:24:15;1.38;;;0.70;;
58685;SDS011;44465;53.206;-6.106;2023-05-15T03:26:41;1.10;;;0.80;;
58685;SDS011;44465;53.206;-6.106;2023-05-15T03:29:08;0.57;;;0.40;;
58685;SDS011;44465;53.206;-6.106;2023-05-15T03:31:33;1.02;;;0.65;;
58685;SDS011;44465;53.206;-6.106;2023-05-15T03:33:59;1.45;;;0.70;;
58685;SDS011;44465;53.206;-6.106;2023-05-15T03:36:24;0.77;;;0.65;;
58685;SDS011;44465;53.206;-6.106;2023-05-15T03:38:50;1.55;;;0.70;;
58685;SDS011;44465;53.206;-6.106;2023-05-15T03:41:15;1.23;;;0.70;;
58685;SDS011;44465;53.206;-6.106;2023-05-15T03:43:41;2.58;;;0.60;;
58685;SDS011;44465;53.206;-6.106;2023-05-15T03:46:06;0.63;;;0.60;;
58685;SDS011;44465;53.206;-6.106;2023-05-15T03:48:31;1.65;;;0.70;;
58685;SDS011;44465;53.206;-6.106;2023-05-15T03:50:57;1.02;;;0.80;;
58685;SDS011;44465;53.206;-6.106;2023-05-15T03:53:22;1.90;;;0.70;;
58685;SDS011;44465;53.206;-6.106;2023-05-15T03:55:50;0.50;;;0.50;;
58685;SDS011;44465;53.206;-6.106;2023-05-15T03:58:16;0.88;;;0.80;;
58685;SDS011;44465;53.206;-6.106;2023-05-15T04:00:41;0.70;;;0.50;;
58685;SDS011;44465;53.206;-6.106;2023-05-15T04:03:07;1.70;;;0.50;;
58685;SDS011;44465;53.206;-6.106;2023-05-15T04:05:32;1.42;;;0.70;;
58685;SDS011;44465;53.206;-6.106;2023-05-15T04:07:58;1.10;;;0.52;;
58685;SDS011;44465;53.206;-6.106;2023-05-15T04:10:23;1.77;;;0.85;;
58685;SDS011;44465;53.206;-6.106;2023-05-15T04:12:49;1.73;;;0.57;;
58685;SDS011;44465;53.206;-6.106;2023-05-15T04:15:19;1.73;;;0.70;;
58685;SDS011;44465;53.206;-6.106;2023-05-15T04:17:47;1.55;;;0.70;;
58685;SDS011;44465;53.206;-6.106;2023-05-15T04:20:14;1.50;;;0.77;;
58685;SDS011;44465;53.206;-6.106;2023-05-15T04:22:41;1.13;;;0.80;;
58685;SDS011;44465;53.206;-6.106;2023-05-15T04:25:07;2.75;;;0.75;;
58685;SDS011;44465;53.206;-6.106;2023-05-15T04:27:33;0.88;;;0.80;;
58685;SDS011;44465;53.206;-6.106;2023-05-15T04:30:00;1.63;;;0.90;;
58685;SDS011;44465;53.206;-6.106;2023-05-15T04:32:25;0.70;;;0.70;;
58685;SDS011;44465;53.206;-6.106;2023-05-15T04:34:52;0.50;;;0.50;;
58685;SDS011;44465;53.206;-6.106;2023-05-15T04:37:17;0.75;;;0.57;;
58685;SDS011;44465;53.206;-6.106;2023-05-15T04:39:43;1.35;;;0.50;;
58685;SDS011;44465;53.206;-6.106;2023-05-15T04:42:08;0.70;;;0.60;;
58685;SDS011;44465;53.206;-6.106;2023-05-15T04:44:34;1.60;;;0.60;;
58685;SDS011;44465;53.206;-6.106;2023-05-15T04:46:59;0.68;;;0.65;;
58685;SDS011;44465;53.206;-6.106;2023-05-15T04:49:24;1.60;;;0.52;;
58685;SDS011;44465;53.206;-6.106;2023-05-15T04:51:50;0.77;;;0.60;;
58685;SDS011;44465;53.206;-6.106;2023-05-15T04:54:15;1.80;;;0.60;;
58685;SDS011;44465;53.206;-6.106;2023-05-15T04:56:41;0.60;;;0.60;;
58685;SDS011;44465;53.206;-6.106;2023-05-15T04:59:07;1.38;;;0.90;;
58685;SDS011;44465;53.206;-6.106;2023-05-15T05:01:33;0.47;;;0.47;;
58685;SDS011;44465;53.206;-6.106;2023-05-15T05:03:59;0.80;;;0.45;;
58685;SDS011;44465;53.206;-6.106;2023-05-15T05:06:24;1.00;;;0.60;;
58685;SDS011;44465;53.206;-6.106;2023-05-15T05:08:50;2.17;;;0.65;;
58685;SDS011;44465;53.206;-6.106;2023-05-15T05:11:15;1.27;;;0.60;;
58685;SDS011;44465;53.206;-6.106;2023-05-15T05:13:40;3.22;;;0.98;;
58685;SDS011;44465;53.206;-6.106;2023-05-15T05:16:06;1.20;;;0.40;;
58685;SDS011;44465;53.206;-6.106;2023-05-15T05:18:32;1.08;;;0.43;;
58685;SDS011;44465;53.206;-6.106;2023-05-15T05:21:01;1.63;;;0.70;;
58685;SDS011;44465;53.206;-6.106;2023-05-15T05:23:27;0.70;;;0.60;;
58685;SDS011;44465;53.206;-6.106;2023-05-15T05:25:54;0.93;;;0.80;;
58685;SDS011;44465;53.206;-6.106;2023-05-15T05:28:19;0.63;;;0.63;;
58685;SDS011;44465;53.206;-6.106;2023-05-15T05:30:45;1.25;;;0.77;;
58685;SDS011;44465;53.206;-6.106;2023-05-15T05:33:11;2.08;;;0.65;;
58685;SDS011;44465;53.206;-6.106;2023-05-15T05:35:37;1.08;;;0.70;;
58685;SDS011;44465;53.206;-6.106;2023-05-15T05:38:02;0.93;;;0.57;;
58685;SDS011;44465;53.206;-6.106;2023-05-15T05:40:28;0.95;;;0.50;;
58685;SDS011;44465;53.206;-6.106;2023-05-15T05:42:53;2.40;;;0.90;;
58685;SDS011;44465;53.206;-6.106;2023-05-15T05:45:19;0.57;;;0.57;;
58685;SDS011;44465;53.206;-6.106;2023-05-15T05:47:45;0.88;;;0.55;;
58685;SDS011;44465;53.206;-6.106;2023-05-15T05:50:10;0.68;;;0.68;;
58685;SDS011;44465;53.206;-6.106;2023-05-15T05:52:36;1.27;;;0.55;;
58685;SDS011;44465;53.206;-6.106;2023-05-15T05:55:01;0.70;;;0.60;;
58685;SDS011;44465;53.206;-6.106;2023-05-15T05:57:27;0.90;;;0.70;;
58685;SDS011;44465;53.206;-6.106;2023-05-15T05:59:52;1.95;;;0.40;;
58685;SDS011;44465;53.206;-6.106;2023-05-15T06:02:18;1.00;;;0.82;;
58685;SDS011;44465;53.206;-6.106;2023-05-15T06:04:43;2.65;;;0.70;;
58685;SDS011;44465;53.206;-6.106;2023-05-15T06:07:10;0.88;;;0.55;;
58685;SDS011;44465;53.206;-6.106;2023-05-15T06:09:36;3.22;;;0.70;;
58685;SDS011;44465;53.206;-6.106;2023-05-15T06:12:02;0.70;;;0.70;;
58685;SDS011;44465;53.206;-6.106;2023-05-15T06:14:29;0.65;;;0.60;;
58685;SDS011;44465;53.206;-6.106;2023-05-15T06:16:54;0.95;;;0.75;;
58685;SDS011;44465;53.206;-6.106;2023-05-15T06:19:20;1.83;;;0.60;;
58685;SDS011;44465;53.206;-6.106;2023-05-15T06:21:46;0.47;;;0.47;;
58685;SDS011;44465;53.206;-6.106;2023-05-15T06:24:11;0.75;;;0.60;;
58685;SDS011;44465;53.206;-6.106;2023-05-15T06:26:37;2.40;;;0.68;;
58685;SDS011;44465;53.206;-6.106;2023-05-15T06:29:02;0.98;;;0.50;;
58685;SDS011;44465;53.206;-6.106;2023-05-15T06:31:28;1.27;;;0.90;;
58685;SDS011;44465;53.206;-6.106;2023-05-15T06:33:53;1.17;;;0.50;;
58685;SDS011;44465;53.206;-6.106;2023-05-15T06:36:19;1.77;;;1.05;;
58685;SDS011;44465;53.206;-6.106;2023-05-15T06:38:44;0.60;;;0.60;;
58685;SDS011;44465;53.206;-6.106;2023-05-15T06:41:10;0.60;;;0.60;;
58685;SDS011;44465;53.206;-6.106;2023-05-15T06:43:35;0.90;;;0.60;;
58685;SDS011;44465;53.206;-6.106;2023-05-15T06:46:00;0.80;;;0.50;;
58685;SDS011;44465;53.206;-6.106;2023-05-15T06:48:26;2.33;;;0.95;;
58685;SDS011;44465;53.206;-6.106;2023-05-15T06:50:51;2.53;;;0.90;;
58685;SDS011;44465;53.206;-6.106;2023-05-15T06:53:17;0.50;;;0.50;;
58685;SDS011;44465;53.206;-6.106;2023-05-15T06:55:42;1.70;;;0.70;;
58685;SDS011;44465;53.206;-6.106;2023-05-15T06:58:08;0.88;;;0.68;;
58685;SDS011;44465;53.206;-6.106;2023-05-15T07:00:33;0.90;;;0.40;;
58685;SDS011;44465;53.206;-6.106;2023-05-15T07:02:59;0.80;;;0.40;;
58685;SDS011;44465;53.206;-6.106;2023-05-15T07:05:24;0.95;;;0.80;;
58685;SDS011;44465;53.206;-6.106;2023-05-15T07:07:50;0.50;;;0.50;;
58685;SDS011;44465;53.206;-6.106;2023-05-15T07:10:16;1.05;;;0.70;;
58685;SDS011;44465;53.206;-6.106;2023-05-15T07:12:41;2.15;;;0.80;;
58685;SDS011;44465;53.206;-6.106;2023-05-15T07:15:07;0.60;;;0.60;;
58685;SDS011;44465;53.206;-6.106;2023-05-15T07:17:32;0.88;;;0.60;;
58685;SDS011;44465;53.206;-6.106;2023-05-15T07:19:58;0.60;;;0.30;;
58685;SDS011;44465;53.206;-6.106;2023-05-15T07:22:25;2.17;;;0.80;;
58685;SDS011;44465;53.206;-6.106;2023-05-15T07:24:52;1.80;;;0.60;;
58685;SDS011;44465;53.206;-6.106;2023-05-15T07:27:17;1.67;;;0.65;;
58685;SDS011;44465;53.206;-6.106;2023-05-15T07:29:43;0.57;;;0.57;;
58685;SDS011;44465;53.206;-6.106;2023-05-15T07:32:08;0.40;;;0.40;;
58685;SDS011;44465;53.206;-6.106;2023-05-15T07:34:34;0.68;;;0.65;;
58685;SDS011;44465;53.206;-6.106;2023-05-15T07:36:59;1.38;;;0.52;;
58685;SDS011;44465;53.206;-6.106;2023-05-15T07:39:25;4.18;;;1.00;;
58685;SDS011;44465;53.206;-6.106;2023-05-15T07:41:50;2.83;;;0.80;;
58685;SDS011;44465;53.206;-6.106;2023-05-15T07:44:16;3.25;;;0.98;;
58685;SDS011;44465;53.206;-6.106;2023-05-15T07:46:41;3.17;;;0.90;;
58685;SDS011;44465;53.206;-6.106;2023-05-15T07:49:06;2.33;;;0.70;;
58685;SDS011;44465;53.206;-6.106;2023-05-15T07:51:32;2.00;;;0.60;;
58685;SDS011;44465;53.206;-6.106;2023-05-15T07:53:57;4.95;;;0.80;;
58685;SDS011;44465;53.206;-6.106;2023-05-15T07:56:23;2.30;;;0.93;;
58685;SDS011;44465;53.206;-6.106;2023-05-15T07:58:48;5.68;;;1.13;;
58685;SDS011;44465;53.206;-6.106;2023-05-15T08:01:14;6.03;;;1.00;;
58685;SDS011;44465;53.206;-6.106;2023-05-15T08:03:40;1.38;;;0.88;;
58685;SDS011;44465;53.206;-6.106;2023-05-15T08:06:05;2.85;;;0.70;;
58685;SDS011;44465;53.206;-6.106;2023-05-15T08:08:32;2.07;;;1.00;;
58685;SDS011;44465;53.206;-6.106;2023-05-15T08:10:58;2.67;;;0.82;;
58685;SDS011;44465;53.206;-6.106;2023-05-15T08:13:23;1.80;;;0.75;;
58685;SDS011;44465;53.206;-6.106;2023-05-15T08:15:48;2.10;;;0.60;;
58685;SDS011;44465;53.206;-6.106;2023-05-15T08:18:14;2.25;;;1.00;;
58685;SDS011;44465;53.206;-6.106;2023-05-15T08:20:39;3.13;;;0.70;;
58685;SDS011;44465;53.206;-6.106;2023-05-15T08:23:05;2.05;;;0.70;;
58685;SDS011;44465;53.206;-6.106;2023-05-15T08:25:30;2.15;;;0.60;;
58685;SDS011;44465;53.206;-6.106;2023-05-15T08:27:56;2.00;;;0.82;;
58685;SDS011;44465;53.206;-6.106;2023-05-15T08:30:21;0.40;;;0.40;;
58685;SDS011;44465;53.206;-6.106;2023-05-15T08:32:47;1.15;;;0.60;;
58685;SDS011;44465;53.206;-6.106;2023-05-15T08:35:13;2.00;;;0.75;;
58685;SDS011;44465;53.206;-6.106;2023-05-15T08:37:39;1.67;;;0.90;;
58685;SDS011;44465;53.206;-6.106;2023-05-15T08:40:05;3.67;;;0.93;;
58685;SDS011;44465;53.206;-6.106;2023-05-15T08:45:01;1.85;;;0.50;;
58685;SDS011;44465;53.206;-6.106;2023-05-15T08:47:27;3.40;;;0.80;;
58685;SDS011;44465;53.206;-6.106;2023-05-15T08:52:19;1.58;;;0.70;;
58685;SDS011;44465;53.206;-6.106;2023-05-15T08:54:45;0.57;;;0.40;;
58685;SDS011;44465;53.206;-6.106;2023-05-15T08:57:12;3.42;;;0.82;;
58685;SDS011;44465;53.206;-6.106;2023-05-15T08:59:38;1.90;;;0.60;;
58685;SDS011;44465;53.206;-6.106;2023-05-15T09:02:05;0.63;;;0.60;;
58685;SDS011;44465;53.206;-6.106;2023-05-15T09:04:30;1.80;;;0.80;;
58685;SDS011;44465;53.206;-6.106;2023-05-15T09:06:57;3.97;;;0.82;;
58685;SDS011;44465;53.206;-6.106;2023-05-15T09:09:24;1.50;;;0.68;;
58685;SDS011;44465;53.206;-6.106;2023-05-15T09:11:51;3.00;;;0.82;;
58685;SDS011;44465;53.206;-6.106;2023-05-15T09:14:18;1.55;;;0.80;;
58685;SDS011;44465;53.206;-6.106;2023-05-15T09:16:43;2.67;;;0.63;;
58685;SDS011;44465;53.206;-6.106;2023-05-15T09:19:10;2.30;;;0.73;;
58685;SDS011;44465;53.206;-6.106;2023-05-15T09:21:38;1.38;;;1.27;;
58685;SDS011;44465;53.206;-6.106;2023-05-15T09:24:22;1.42;;;0.60;;
58685;SDS011;44465;53.206;-6.106;2023-05-15T09:27:05;1.00;;;0.52;;
58685;SDS011;44465;53.206;-6.106;2023-05-15T09:29:35;0.75;;;0.60;;
58685;SDS011;44465;53.206;-6.106;2023-05-15T09:32:05;1.65;;;0.70;;
58685;SDS011;44465;53.206;-6.106;2023-05-15T09:34:33;2.08;;;0.60;;
58685;SDS011;44465;53.206;-6.106;2023-05-15T09:39:26;3.28;;;0.75;;
58685;SDS011;44465;53.206;-6.106;2023-05-15T09:41:52;0.73;;;0.50;;
58685;SDS011;44465;53.206;-6.106;2023-05-15T09:44:19;0.57;;;0.45;;
58685;SDS011;44465;53.206;-6.106;2023-05-15T09:46:49;2.75;;;0.80;;
58685;SDS011;44465;53.206;-6.106;2023-05-15T09:49:14;2.70;;;0.90;;
58685;SDS011;44465;53.206;-6.106;2023-05-15T09:51:40;4.47;;;1.00;;
58685;SDS011;44465;53.206;-6.106;2023-05-15T09:54:12;3.47;;;0.85;;
58685;SDS011;44465;53.206;-6.106;2023-05-15T09:56:44;2.70;;;0.85;;
58685;SDS011;44465;53.206;-6.106;2023-05-15T09:59:12;2.20;;;0.77;;
58685;SDS011;44465;53.206;-6.106;2023-05-15T10:01:40;0.90;;;0.73;;
58685;SDS011;44465;53.206;-6.106;2023-05-15T10:04:08;3.70;;;0.70;;
58685;SDS011;44465;53.206;-6.106;2023-05-15T10:06:34;1.80;;;0.82;;
58685;SDS011;44465;53.206;-6.106;2023-05-15T10:09:01;2.03;;;0.82;;
58685;SDS011;44465;53.206;-6.106;2023-05-15T10:11:28;2.47;;;0.50;;
58685;SDS011;44465;53.206;-6.106;2023-05-15T10:13:54;1.67;;;0.70;;
58685;SDS011;44465;53.206;-6.106;2023-05-15T10:16:20;3.83;;;0.82;;
58685;SDS011;44465;53.206;-6.106;2023-05-15T10:18:49;2.25;;;0.60;;
58685;SDS011;44465;53.206;-6.106;2023-05-15T10:21:15;1.35;;;0.73;;
58685;SDS011;44465;53.206;-6.106;2023-05-15T10:23:42;2.53;;;0.63;;
58685;SDS011;44465;53.206;-6.106;2023-05-15T10:29:12;2.03;;;0.70;;
58685;SDS011;44465;53.206;-6.106;2023-05-15T10:31:41;2.08;;;0.80;;
58685;SDS011;44465;53.206;-6.106;2023-05-15T10:34:08;0.63;;;0.60;;
58685;SDS011;44465;53.206;-6.106;2023-05-15T10:36:35;2.08;;;0.82;;
58685;SDS011;44465;53.206;-6.106;2023-05-15T10:39:02;4.25;;;2.55;;
58685;SDS011;44465;53.206;-6.106;2023-05-15T10:41:29;3.25;;;1.10;;
58685;SDS011;44465;53.206;-6.106;2023-05-15T10:43:59;4.72;;;1.10;;
58685;SDS011;44465;53.206;-6.106;2023-05-15T10:46:27;3.15;;;0.90;;
58685;SDS011;44465;53.206;-6.106;2023-05-15T10:48:53;6.22;;;1.25;;
58685;SDS011;44465;53.206;-6.106;2023-05-15T10:51:25;1.17;;;0.60;;
58685;SDS011;44465;53.206;-6.106;2023-05-15T10:53:52;2.65;;;0.65;;
58685;SDS011;44465;53.206;-6.106;2023-05-15T10:56:19;3.00;;;0.70;;
58685;SDS011;44465;53.206;-6.106;2023-05-15T10:58:46;2.78;;;0.60;;
58685;SDS011;44465;53.206;-6.106;2023-05-15T11:01:25;2.28;;;0.90;;
58685;SDS011;44465;53.206;-6.106;2023-05-15T11:06:30;1.13;;;1.02;;
58685;SDS011;44465;53.206;-6.106;2023-05-15T11:11:59;2.05;;;0.60;;
58685;SDS011;44465;53.206;-6.106;2023-05-15T11:14:27;1.67;;;0.50;;
58685;SDS011;44465;53.206;-6.106;2023-05-15T11:24:30;1.27;;;0.65;;
58685;SDS011;44465;53.206;-6.106;2023-05-15T11:27:03;1.77;;;0.60;;
58685;SDS011;44465;53.206;-6.106;2023-05-15T11:29:29;1.55;;;0.65;;
58685;SDS011;44465;53.206;-6.106;2023-05-15T11:31:55;3.30;;;0.88;;
58685;SDS011;44465;53.206;-6.106;2023-05-15T11:34:33;2.03;;;0.90;;
58685;SDS011;44465;53.206;-6.106;2023-05-15T11:36:59;2.75;;;0.85;;
58685;SDS011;44465;53.206;-6.106;2023-05-15T11:39:26;2.97;;;1.20;;
58685;SDS011;44465;53.206;-6.106;2023-05-15T11:41:55;3.30;;;0.95;;
58685;SDS011;44465;53.206;-6.106;2023-05-15T11:44:21;4.97;;;1.63;;
58685;SDS011;44465;53.206;-6.106;2023-05-15T11:46:48;3.03;;;1.90;;
58685;SDS011;44465;53.206;-6.106;2023-05-15T11:49:20;4.47;;;1.90;;
58685;SDS011;44465;53.206;-6.106;2023-05-15T11:51:48;2.50;;;0.90;;
58685;SDS011;44465;53.206;-6.106;2023-05-15T11:54:15;6.50;;;1.60;;
58685;SDS011;44465;53.206;-6.106;2023-05-15T11:56:42;2.65;;;1.20;;
58685;SDS011;44465;53.206;-6.106;2023-05-15T11:59:09;3.60;;;1.00;;
58685;SDS011;44465;53.206;-6.106;2023-05-15T12:01:41;3.92;;;1.02;;
58685;SDS011;44465;53.206;-6.106;2023-05-15T12:04:14;4.88;;;1.35;;
58685;SDS011;44465;53.206;-6.106;2023-05-15T12:06:40;1.50;;;0.85;;
58685;SDS011;44465;53.206;-6.106;2023-05-15T12:09:11;4.22;;;0.90;;
58685;SDS011;44465;53.206;-6.106;2023-05-15T12:11:39;4.45;;;0.95;;
58685;SDS011;44465;53.206;-6.106;2023-05-15T12:14:04;3.63;;;0.90;;
58685;SDS011;44465;53.206;-6.106;2023-05-15T12:16:30;1.08;;;0.93;;
58685;SDS011;44465;53.206;-6.106;2023-05-15T12:18:55;3.28;;;0.90;;
58685;SDS011;44465;53.206;-6.106;2023-05-15T12:21:21;3.20;;;0.90;;
58685;SDS011;44465;53.206;-6.106;2023-05-15T12:23:50;2.45;;;0.70;;
58685;SDS011;44465;53.206;-6.106;2023-05-15T12:26:20;3.70;;;0.80;;
58685;SDS011;44465;53.206;-6.106;2023-05-15T12:28:47;1.20;;;0.60;;
58685;SDS011;44465;53.206;-6.106;2023-05-15T12:31:14;4.43;;;0.73;;
58685;SDS011;44465;53.206;-6.106;2023-05-15T12:33:41;4.93;;;1.13;;
58685;SDS011;44465;53.206;-6.106;2023-05-15T12:36:08;1.40;;;1.08;;
58685;SDS011;44465;53.206;-6.106;2023-05-15T12:38:34;2.90;;;0.82;;
58685;SDS011;44465;53.206;-6.106;2023-05-15T12:41:00;3.80;;;1.05;;
58685;SDS011;44465;53.206;-6.106;2023-05-15T12:43:26;1.73;;;0.68;;
58685;SDS011;44465;53.206;-6.106;2023-05-15T12:45:52;4.60;;;0.98;;
58685;SDS011;44465;53.206;-6.106;2023-05-15T12:48:18;3.15;;;1.00;;
58685;SDS011;44465;53.206;-6.106;2023-05-15T12:50:44;1.63;;;0.75;;
58685;SDS011;44465;53.206;-6.106;2023-05-15T12:53:14;2.22;;;0.65;;
58685;SDS011;44465;53.206;-6.106;2023-05-15T12:55:40;2.88;;;0.70;;
58685;SDS011;44465;53.206;-6.106;2023-05-15T12:58:08;2.58;;;0.70;;
58685;SDS011;44465;53.206;-6.106;2023-05-15T13:00:39;1.52;;;0.90;;
58685;SDS011;44465;53.206;-6.106;2023-05-15T13:03:08;1.65;;;0.73;;
58685;SDS011;44465;53.206;-6.106;2023-05-15T13:05:35;3.33;;;1.00;;
58685;SDS011;44465;53.206;-6.106;2023-05-15T13:08:02;1.40;;;0.75;;
58685;SDS011;44465;53.206;-6.106;2023-05-15T13:10:30;1.98;;;0.98;;
58685;SDS011;44465;53.206;-6.106;2023-05-15T13:12:57;2.40;;;0.73;;
58685;SDS011;44465;53.206;-6.106;2023-05-15T13:18:03;2.70;;;0.70;;
58685;SDS011;44465;53.206;-6.106;2023-05-15T13:23:14;3.35;;;0.82;;
58685;SDS011;44465;53.206;-6.106;2023-05-15T13:25:42;1.42;;;0.80;;
58685;SDS011;44465;53.206;-6.106;2023-05-15T13:28:08;1.30;;;0.55;;
58685;SDS011;44465;53.206;-6.106;2023-05-15T13:30:35;4.13;;;0.80;;
58685;SDS011;44465;53.206;-6.106;2023-05-15T13:33:03;1.02;;;0.55;;
58685;SDS011;44465;53.206;-6.106;2023-05-15T13:35:29;1.50;;;0.80;;
58685;SDS011;44465;53.206;-6.106;2023-05-15T13:37:55;3.65;;;0.70;;
58685;SDS011;44465;53.206;-6.106;2023-05-15T13:40:21;3.22;;;0.80;;
58685;SDS011;44465;53.206;-6.106;2023-05-15T13:42:46;3.38;;;0.63;;
58685;SDS011;44465;53.206;-6.106;2023-05-15T13:45:12;1.92;;;0.75;;
58685;SDS011;44465;53.206;-6.106;2023-05-15T13:47:39;6.55;;;1.10;;
58685;SDS011;44465;53.206;-6.106;2023-05-15T13:50:06;0.90;;;0.43;;
58685;SDS011;44465;53.206;-6.106;2023-05-15T13:52:32;10.43;;;1.17;;
58685;SDS011;44465;53.206;-6.106;2023-05-15T13:54:58;2.80;;;0.60;;
58685;SDS011;44465;53.206;-6.106;2023-05-15T13:57:23;2.95;;;0.70;;
58685;SDS011;44465;53.206;-6.106;2023-05-15T13:59:49;6.75;;;1.10;;
58685;SDS011;44465;53.206;-6.106;2023-05-15T14:02:14;2.40;;;0.93;;
58685;SDS011;44465;53.206;-6.106;2023-05-15T14:04:40;6.03;;;1.30;;
58685;SDS011;44465;53.206;-6.106;2023-05-15T14:07:05;6.70;;;1.08;;
58685;SDS011;44465;53.206;-6.106;2023-05-15T14:09:31;4.35;;;0.80;;
58685;SDS011;44465;53.206;-6.106;2023-05-15T14:11:56;1.48;;;0.70;;
58685;SDS011;44465;53.206;-6.106;2023-05-15T14:14:22;5.82;;;1.00;;
58685;SDS011;44465;53.206;-6.106;2023-05-15T14:16:47;3.92;;;0.75;;
58685;SDS011;44465;53.206;-6.106;2023-05-15T14:19:13;5.25;;;0.90;;
58685;SDS011;44465;53.206;-6.106;2023-05-15T14:21:39;1.60;;;0.90;;
58685;SDS011;44465;53.206;-6.106;2023-05-15T14:24:04;4.05;;;0.90;;
58685;SDS011;44465;53.206;-6.106;2023-05-15T14:26:30;2.20;;;0.63;;
58685;SDS011;44465;53.206;-6.106;2023-05-15T14:28:56;3.78;;;0.70;;
58685;SDS011;44465;53.206;-6.106;2023-05-15T14:31:22;3.72;;;1.05;;
58685;SDS011;44465;53.206;-6.106;2023-05-15T14:33:48;2.97;;;1.20;;
58685;SDS011;44465;53.206;-6.106;2023-05-15T14:36:14;6.22;;;1.38;;
58685;SDS011;44465;53.206;-6.106;2023-05-15T14:38:39;4.72;;;1.23;;
58685;SDS011;44465;53.206;-6.106;2023-05-15T14:41:06;2.65;;;1.52;;
58685;SDS011;44465;53.206;-6.106;2023-05-15T14:43:31;7.13;;;2.15;;
58685;SDS011;44465;53.206;-6.106;2023-05-15T14:45:57;4.53;;;1.98;;
58685;SDS011;44465;53.206;-6.106;2023-05-15T14:48:22;19.77;;;3.75;;
58685;SDS011;44465;53.206;-6.106;2023-05-15T14:50:48;6.82;;;2.42;;
58685;SDS011;44465;53.206;-6.106;2023-05-15T14:53:13;13.48;;;2.50;;
58685;SDS011;44465;53.206;-6.106;2023-05-15T14:55:38;8.93;;;2.58;;
58685;SDS011;44465;53.206;-6.106;2023-05-15T14:58:04;7.50;;;2.03;;
58685;SDS011;44465;53.206;-6.106;2023-05-15T15:00:29;6.65;;;1.95;;
58685;SDS011;44465;53.206;-6.106;2023-05-15T15:02:55;8.00;;;2.08;;
58685;SDS011;44465;53.206;-6.106;2023-05-15T15:05:21;10.38;;;2.03;;
58685;SDS011;44465;53.206;-6.106;2023-05-15T15:07:57;9.07;;;2.28;;
58685;SDS011;44465;53.206;-6.106;2023-05-15T15:10:27;8.23;;;2.33;;